sensor_id;sensor_type;location;lat;lon;timestamp;temperature;humidity
19829;DHT22;10075;50.924;4.396;2022-07-23T00:01:44;18.20;99.90
19829;DHT22;10075;50.924;4.396;2022-07-23T00:04:13;18.10;99.90
19829;DHT22;10075;50.924;4.396;2022-07-23T00:06:40;18.10;99.90
19829;DHT22;10075;50.924;4.396;2022-07-23T00:09:08;18.10;99.90
19829;DHT22;10075;50.924;4.396;2022-07-23T00:11:35;18.10;99.90
19829;DHT22;10075;50.924;4.396;2022-07-23T00:14:02;18.00;99.90
19829;DHT22;10075;50.924;4.396;2022-07-23T00:16:29;18.00;99.90
19829;DHT22;10075;50.924;4.396;2022-07-23T00:18:56;18.00;99.90
19829;DHT22;10075;50.924;4.396;2022-07-23T00:21:23;17.90;99.90
19829;DHT22;10075;50.924;4.396;2022-07-23T00:23:50;17.90;99.90
19829;DHT22;10075;50.924;4.396;2022-07-23T00:26:18;17.90;99.90
19829;DHT22;10075;50.924;4.396;2022-07-23T00:28:45;17.90;99.90
19829;DHT22;10075;50.924;4.396;2022-07-23T00:31:12;17.90;99.90
19829;DHT22;10075;50.924;4.396;2022-07-23T00:33:39;17.90;99.90
19829;DHT22;10075;50.924;4.396;2022-07-23T00:36:07;17.80;99.90
19829;DHT22;10075;50.924;4.396;2022-07-23T00:38:34;17.90;99.90
19829;DHT22;10075;50.924;4.396;2022-07-23T00:41:01;17.90;99.90
19829;DHT22;10075;50.924;4.396;2022-07-23T00:43:29;17.90;99.90
19829;DHT22;10075;50.924;4.396;2022-07-23T00:45:56;17.80;99.90
19829;DHT22;10075;50.924;4.396;2022-07-23T00:48:23;17.90;99.90
19829;DHT22;10075;50.924;4.396;2022-07-23T00:50:50;17.80;99.90
19829;DHT22;10075;50.924;4.396;2022-07-23T00:53:17;17.80;99.90
19829;DHT22;10075;50.924;4.396;2022-07-23T00:55:44;17.80;99.90
19829;DHT22;10075;50.924;4.396;2022-07-23T00:58:11;17.80;99.90
19829;DHT22;10075;50.924;4.396;2022-07-23T01:00:40;17.80;99.90
19829;DHT22;10075;50.924;4.396;2022-07-23T01:03:07;17.80;99.90
19829;DHT22;10075;50.924;4.396;2022-07-23T01:05:34;17.70;99.90
19829;DHT22;10075;50.924;4.396;2022-07-23T01:08:01;17.70;99.90
19829;DHT22;10075;50.924;4.396;2022-07-23T01:10:28;17.70;99.90
19829;DHT22;10075;50.924;4.396;2022-07-23T01:12:58;17.60;99.90
19829;DHT22;10075;50.924;4.396;2022-07-23T01:15:25;17.60;99.90
19829;DHT22;10075;50.924;4.396;2022-07-23T01:17:54;17.60;99.90
19829;DHT22;10075;50.924;4.396;2022-07-23T01:20:21;17.50;99.90
19829;DHT22;10075;50.924;4.396;2022-07-23T01:22:49;17.50;99.90
19829;DHT22;10075;50.924;4.396;2022-07-23T01:25:17;17.50;99.90
19829;DHT22;10075;50.924;4.396;2022-07-23T01:27:44;17.50;99.90
19829;DHT22;10075;50.924;4.396;2022-07-23T01:30:12;17.50;99.90
19829;DHT22;10075;50.924;4.396;2022-07-23T01:32:39;17.50;99.90
19829;DHT22;10075;50.924;4.396;2022-07-23T01:35:07;17.50;99.90
19829;DHT22;10075;50.924;4.396;2022-07-23T01:37:35;17.50;99.90
19829;DHT22;10075;50.924;4.396;2022-07-23T01:40:05;17.50;99.90
19829;DHT22;10075;50.924;4.396;2022-07-23T01:42:32;17.40;99.90
19829;DHT22;10075;50.924;4.396;2022-07-23T01:44:59;17.40;99.90
19829;DHT22;10075;50.924;4.396;2022-07-23T01:47:26;17.40;99.90
19829;DHT22;10075;50.924;4.396;2022-07-23T01:49:53;17.40;99.90
19829;DHT22;10075;50.924;4.396;2022-07-23T01:52:20;17.40;99.90
19829;DHT22;10075;50.924;4.396;2022-07-23T01:54:47;17.40;99.90
19829;DHT22;10075;50.924;4.396;2022-07-23T01:57:15;17.40;99.90
19829;DHT22;10075;50.924;4.396;2022-07-23T01:59:42;17.30;99.90
19829;DHT22;10075;50.924;4.396;2022-07-23T02:02:09;17.30;99.90
19829;DHT22;10075;50.924;4.396;2022-07-23T02:04:36;17.30;99.90
19829;DHT22;10075;50.924;4.396;2022-07-23T02:07:04;17.30;99.90
19829;DHT22;10075;50.924;4.396;2022-07-23T02:09:31;17.30;99.90
19829;DHT22;10075;50.924;4.396;2022-07-23T02:11:58;17.30;99.90
19829;DHT22;10075;50.924;4.396;2022-07-23T02:14:27;17.30;99.90
19829;DHT22;10075;50.924;4.396;2022-07-23T02:16:54;17.20;99.90
19829;DHT22;10075;50.924;4.396;2022-07-23T02:19:21;17.20;99.90
19829;DHT22;10075;50.924;4.396;2022-07-23T02:21:48;17.20;99.90
19829;DHT22;10075;50.924;4.396;2022-07-23T02:24:15;17.10;99.90
19829;DHT22;10075;50.924;4.396;2022-07-23T02:26:42;17.10;99.90
19829;DHT22;10075;50.924;4.396;2022-07-23T02:29:09;17.10;99.90
19829;DHT22;10075;50.924;4.396;2022-07-23T02:31:38;17.00;99.90
19829;DHT22;10075;50.924;4.396;2022-07-23T02:34:05;17.00;99.90
19829;DHT22;10075;50.924;4.396;2022-07-23T02:36:32;17.00;99.90
19829;DHT22;10075;50.924;4.396;2022-07-23T02:38:59;17.00;99.90
19829;DHT22;10075;50.924;4.396;2022-07-23T02:41:26;17.00;99.90
19829;DHT22;10075;50.924;4.396;2022-07-23T02:43:56;16.90;99.90
19829;DHT22;10075;50.924;4.396;2022-07-23T02:46:23;16.90;99.90
19829;DHT22;10075;50.924;4.396;2022-07-23T02:48:51;16.90;99.90
19829;DHT22;10075;50.924;4.396;2022-07-23T02:51:18;16.80;99.90
19829;DHT22;10075;50.924;4.396;2022-07-23T02:53:45;16.80;99.90
19829;DHT22;10075;50.924;4.396;2022-07-23T02:56:12;16.80;99.90
19829;DHT22;10075;50.924;4.396;2022-07-23T02:58:39;16.80;99.90
19829;DHT22;10075;50.924;4.396;2022-07-23T03:01:06;16.80;99.90
19829;DHT22;10075;50.924;4.396;2022-07-23T03:03:33;16.80;99.90
19829;DHT22;10075;50.924;4.396;2022-07-23T03:06:01;16.80;99.90
19829;DHT22;10075;50.924;4.396;2022-07-23T03:08:28;16.70;99.90
19829;DHT22;10075;50.924;4.396;2022-07-23T03:10:55;16.70;99.90
19829;DHT22;10075;50.924;4.396;2022-07-23T03:13:22;16.60;99.90
19829;DHT22;10075;50.924;4.396;2022-07-23T03:15:49;16.60;99.90
19829;DHT22;10075;50.924;4.396;2022-07-23T03:18:16;16.50;99.90
19829;DHT22;10075;50.924;4.396;2022-07-23T03:20:43;16.50;99.90
19829;DHT22;10075;50.924;4.396;2022-07-23T03:23:11;16.40;99.90
19829;DHT22;10075;50.924;4.396;2022-07-23T03:25:38;16.40;99.90
19829;DHT22;10075;50.924;4.396;2022-07-23T03:28:05;16.30;99.90
19829;DHT22;10075;50.924;4.396;2022-07-23T03:30:32;16.30;99.90
19829;DHT22;10075;50.924;4.396;2022-07-23T03:32:59;16.30;99.90
19829;DHT22;10075;50.924;4.396;2022-07-23T03:35:26;16.30;99.90
19829;DHT22;10075;50.924;4.396;2022-07-23T03:37:53;16.30;99.90
19829;DHT22;10075;50.924;4.396;2022-07-23T03:40:21;16.20;99.90
19829;DHT22;10075;50.924;4.396;2022-07-23T03:42:48;16.20;99.90
19829;DHT22;10075;50.924;4.396;2022-07-23T03:45:15;16.20;99.90
19829;DHT22;10075;50.924;4.396;2022-07-23T03:47:42;16.20;99.90
19829;DHT22;10075;50.924;4.396;2022-07-23T03:50:10;16.30;99.90
19829;DHT22;10075;50.924;4.396;2022-07-23T03:52:37;16.30;99.90
19829;DHT22;10075;50.924;4.396;2022-07-23T03:55:05;16.30;99.90
19829;DHT22;10075;50.924;4.396;2022-07-23T03:57:33;16.30;99.90
19829;DHT22;10075;50.924;4.396;2022-07-23T04:00:01;16.30;99.90
19829;DHT22;10075;50.924;4.396;2022-07-23T04:02:28;16.30;99.90
19829;DHT22;10075;50.924;4.396;2022-07-23T04:04:55;16.30;99.90
19829;DHT22;10075;50.924;4.396;2022-07-23T04:07:22;16.20;99.90
19829;DHT22;10075;50.924;4.396;2022-07-23T04:09:49;16.20;99.90
19829;DHT22;10075;50.924;4.396;2022-07-23T04:12:16;16.20;99.90
19829;DHT22;10075;50.924;4.396;2022-07-23T04:14:44;16.20;99.90
19829;DHT22;10075;50.924;4.396;2022-07-23T04:17:11;16.20;99.90
19829;DHT22;10075;50.924;4.396;2022-07-23T04:19:38;16.30;99.90
19829;DHT22;10075;50.924;4.396;2022-07-23T04:22:07;16.20;99.90
19829;DHT22;10075;50.924;4.396;2022-07-23T04:24:34;16.20;99.90
19829;DHT22;10075;50.924;4.396;2022-07-23T04:27:01;16.20;99.90
19829;DHT22;10075;50.924;4.396;2022-07-23T04:29:28;16.30;99.90
19829;DHT22;10075;50.924;4.396;2022-07-23T04:31:57;16.30;99.90
19829;DHT22;10075;50.924;4.396;2022-07-23T04:34:24;16.30;99.90
19829;DHT22;10075;50.924;4.396;2022-07-23T04:36:52;16.20;99.90
19829;DHT22;10075;50.924;4.396;2022-07-23T04:39:19;16.30;99.90
19829;DHT22;10075;50.924;4.396;2022-07-23T04:41:46;16.20;99.90
19829;DHT22;10075;50.924;4.396;2022-07-23T04:44:13;16.30;99.90
19829;DHT22;10075;50.924;4.396;2022-07-23T04:46:40;16.30;99.90
19829;DHT22;10075;50.924;4.396;2022-07-23T04:49:08;16.30;99.90
19829;DHT22;10075;50.924;4.396;2022-07-23T04:51:35;16.40;99.90
19829;DHT22;10075;50.924;4.396;2022-07-23T04:54:02;16.50;99.90
19829;DHT22;10075;50.924;4.396;2022-07-23T04:56:29;16.50;99.90
19829;DHT22;10075;50.924;4.396;2022-07-23T04:58:56;16.60;99.90
19829;DHT22;10075;50.924;4.396;2022-07-23T05:01:23;16.60;99.90
19829;DHT22;10075;50.924;4.396;2022-07-23T05:03:50;16.70;99.90
19829;DHT22;10075;50.924;4.396;2022-07-23T05:06:18;16.80;99.90
19829;DHT22;10075;50.924;4.396;2022-07-23T05:08:45;16.90;99.90
19829;DHT22;10075;50.924;4.396;2022-07-23T05:11:12;17.00;99.90
19829;DHT22;10075;50.924;4.396;2022-07-23T05:13:39;17.00;99.90
19829;DHT22;10075;50.924;4.396;2022-07-23T05:16:07;17.10;99.90
19829;DHT22;10075;50.924;4.396;2022-07-23T05:18:34;17.20;99.90
19829;DHT22;10075;50.924;4.396;2022-07-23T05:21:01;17.30;99.90
19829;DHT22;10075;50.924;4.396;2022-07-23T05:23:29;17.50;99.90
19829;DHT22;10075;50.924;4.396;2022-07-23T05:25:56;17.70;99.90
19829;DHT22;10075;50.924;4.396;2022-07-23T05:28:23;17.90;99.90
19829;DHT22;10075;50.924;4.396;2022-07-23T05:30:50;18.10;99.90
19829;DHT22;10075;50.924;4.396;2022-07-23T05:33:18;18.20;99.90
19829;DHT22;10075;50.924;4.396;2022-07-23T05:35:45;18.40;99.90
19829;DHT22;10075;50.924;4.396;2022-07-23T05:38:12;18.60;99.90
19829;DHT22;10075;50.924;4.396;2022-07-23T05:40:41;18.60;99.90
19829;DHT22;10075;50.924;4.396;2022-07-23T05:43:08;18.70;99.90
19829;DHT22;10075;50.924;4.396;2022-07-23T05:45:34;18.80;99.90
19829;DHT22;10075;50.924;4.396;2022-07-23T05:48:01;18.90;99.90
19829;DHT22;10075;50.924;4.396;2022-07-23T05:50:29;18.90;99.90
19829;DHT22;10075;50.924;4.396;2022-07-23T05:52:56;19.00;99.90
19829;DHT22;10075;50.924;4.396;2022-07-23T05:55:23;19.10;99.90
19829;DHT22;10075;50.924;4.396;2022-07-23T05:57:51;19.10;99.90
19829;DHT22;10075;50.924;4.396;2022-07-23T06:00:18;19.20;99.90
19829;DHT22;10075;50.924;4.396;2022-07-23T06:02:45;19.30;99.90
19829;DHT22;10075;50.924;4.396;2022-07-23T06:05:12;19.30;99.90
19829;DHT22;10075;50.924;4.396;2022-07-23T06:07:39;19.40;99.90
19829;DHT22;10075;50.924;4.396;2022-07-23T06:10:07;19.40;99.90
19829;DHT22;10075;50.924;4.396;2022-07-23T06:12:35;19.40;99.90
19829;DHT22;10075;50.924;4.396;2022-07-23T06:15:04;19.50;99.90
19829;DHT22;10075;50.924;4.396;2022-07-23T06:17:31;19.60;99.90
19829;DHT22;10075;50.924;4.396;2022-07-23T06:19:58;19.70;99.90
19829;DHT22;10075;50.924;4.396;2022-07-23T06:22:25;19.70;99.90
19829;DHT22;10075;50.924;4.396;2022-07-23T06:24:52;19.80;99.90
19829;DHT22;10075;50.924;4.396;2022-07-23T06:27:19;19.90;99.90
19829;DHT22;10075;50.924;4.396;2022-07-23T06:29:46;19.90;99.90
19829;DHT22;10075;50.924;4.396;2022-07-23T06:32:14;20.00;99.90
19829;DHT22;10075;50.924;4.396;2022-07-23T06:34:41;20.10;99.90
19829;DHT22;10075;50.924;4.396;2022-07-23T06:37:08;20.10;99.90
19829;DHT22;10075;50.924;4.396;2022-07-23T06:39:35;20.20;99.90
19829;DHT22;10075;50.924;4.396;2022-07-23T06:42:02;20.30;99.90
19829;DHT22;10075;50.924;4.396;2022-07-23T06:44:29;20.30;99.90
19829;DHT22;10075;50.924;4.396;2022-07-23T06:46:56;20.40;99.90
19829;DHT22;10075;50.924;4.396;2022-07-23T06:49:24;20.50;99.90
19829;DHT22;10075;50.924;4.396;2022-07-23T06:51:51;20.50;99.90
19829;DHT22;10075;50.924;4.396;2022-07-23T06:54:18;20.50;99.90
19829;DHT22;10075;50.924;4.396;2022-07-23T06:56:45;20.50;99.90
19829;DHT22;10075;50.924;4.396;2022-07-23T06:59:12;20.60;99.90
19829;DHT22;10075;50.924;4.396;2022-07-23T07:01:39;20.50;99.90
19829;DHT22;10075;50.924;4.396;2022-07-23T07:04:05;20.50;99.90
19829;DHT22;10075;50.924;4.396;2022-07-23T07:06:34;20.60;99.90
19829;DHT22;10075;50.924;4.396;2022-07-23T07:09:01;20.60;99.90
19829;DHT22;10075;50.924;4.396;2022-07-23T07:11:28;20.60;99.90
19829;DHT22;10075;50.924;4.396;2022-07-23T07:13:55;20.70;99.90
19829;DHT22;10075;50.924;4.396;2022-07-23T07:16:22;20.60;99.90
19829;DHT22;10075;50.924;4.396;2022-07-23T07:18:49;20.60;99.90
19829;DHT22;10075;50.924;4.396;2022-07-23T07:21:16;20.60;99.90
19829;DHT22;10075;50.924;4.396;2022-07-23T07:23:44;20.60;99.90
19829;DHT22;10075;50.924;4.396;2022-07-23T07:26:11;20.70;99.90
19829;DHT22;10075;50.924;4.396;2022-07-23T07:28:38;20.80;99.90
19829;DHT22;10075;50.924;4.396;2022-07-23T07:31:05;20.80;99.90
19829;DHT22;10075;50.924;4.396;2022-07-23T07:33:32;20.90;99.90
19829;DHT22;10075;50.924;4.396;2022-07-23T07:35:59;20.90;99.90
19829;DHT22;10075;50.924;4.396;2022-07-23T07:38:27;20.90;99.90
19829;DHT22;10075;50.924;4.396;2022-07-23T07:40:55;21.00;99.90
19829;DHT22;10075;50.924;4.396;2022-07-23T07:43:22;21.00;99.90
19829;DHT22;10075;50.924;4.396;2022-07-23T07:45:49;21.10;99.90
19829;DHT22;10075;50.924;4.396;2022-07-23T07:48:16;21.10;99.90
19829;DHT22;10075;50.924;4.396;2022-07-23T07:50:43;21.10;99.90
19829;DHT22;10075;50.924;4.396;2022-07-23T07:53:10;21.20;99.90
19829;DHT22;10075;50.924;4.396;2022-07-23T07:55:37;21.30;99.90
19829;DHT22;10075;50.924;4.396;2022-07-23T07:58:05;21.40;99.90
19829;DHT22;10075;50.924;4.396;2022-07-23T08:00:32;21.50;99.90
19829;DHT22;10075;50.924;4.396;2022-07-23T08:02:59;21.60;99.90
19829;DHT22;10075;50.924;4.396;2022-07-23T08:05:28;21.60;99.90
19829;DHT22;10075;50.924;4.396;2022-07-23T08:07:55;21.80;99.90
19829;DHT22;10075;50.924;4.396;2022-07-23T08:10:24;21.90;99.90
19829;DHT22;10075;50.924;4.396;2022-07-23T08:12:53;22.00;99.90
19829;DHT22;10075;50.924;4.396;2022-07-23T08:15:24;22.20;99.90
19829;DHT22;10075;50.924;4.396;2022-07-23T08:17:51;22.30;99.90
19829;DHT22;10075;50.924;4.396;2022-07-23T08:20:19;22.30;99.90
19829;DHT22;10075;50.924;4.396;2022-07-23T08:22:49;22.40;99.90
19829;DHT22;10075;50.924;4.396;2022-07-23T08:25:19;22.50;99.90
19829;DHT22;10075;50.924;4.396;2022-07-23T08:27:47;22.50;99.90
19829;DHT22;10075;50.924;4.396;2022-07-23T08:30:15;22.70;99.90
19829;DHT22;10075;50.924;4.396;2022-07-23T08:32:52;22.80;99.90
19829;DHT22;10075;50.924;4.396;2022-07-23T08:35:23;23.00;99.90
19829;DHT22;10075;50.924;4.396;2022-07-23T08:37:51;23.10;99.90
19829;DHT22;10075;50.924;4.396;2022-07-23T08:40:18;22.90;99.90
19829;DHT22;10075;50.924;4.396;2022-07-23T08:42:48;22.90;99.90
19829;DHT22;10075;50.924;4.396;2022-07-23T08:45:17;22.90;99.90
19829;DHT22;10075;50.924;4.396;2022-07-23T08:47:44;23.00;99.90
19829;DHT22;10075;50.924;4.396;2022-07-23T08:50:13;23.20;99.90
19829;DHT22;10075;50.924;4.396;2022-07-23T08:52:40;23.30;99.90
19829;DHT22;10075;50.924;4.396;2022-07-23T08:55:08;23.50;99.90
19829;DHT22;10075;50.924;4.396;2022-07-23T08:57:35;23.50;99.90
19829;DHT22;10075;50.924;4.396;2022-07-23T09:00:04;23.80;99.90
19829;DHT22;10075;50.924;4.396;2022-07-23T09:02:38;23.80;99.90
19829;DHT22;10075;50.924;4.396;2022-07-23T09:05:06;23.80;99.90
19829;DHT22;10075;50.924;4.396;2022-07-23T09:07:34;23.80;99.90
19829;DHT22;10075;50.924;4.396;2022-07-23T09:10:07;23.90;99.90
19829;DHT22;10075;50.924;4.396;2022-07-23T09:12:34;24.00;99.10
19829;DHT22;10075;50.924;4.396;2022-07-23T09:15:05;24.00;99.00
19829;DHT22;10075;50.924;4.396;2022-07-23T09:17:40;24.10;98.70
19829;DHT22;10075;50.924;4.396;2022-07-23T09:20:09;24.10;97.90
19829;DHT22;10075;50.924;4.396;2022-07-23T09:22:37;24.10;97.70
19829;DHT22;10075;50.924;4.396;2022-07-23T09:25:10;24.10;98.10
19829;DHT22;10075;50.924;4.396;2022-07-23T09:27:52;24.20;98.20
19829;DHT22;10075;50.924;4.396;2022-07-23T09:30:20;24.40;97.00
19829;DHT22;10075;50.924;4.396;2022-07-23T09:33:08;24.40;96.40
19829;DHT22;10075;50.924;4.396;2022-07-23T09:35:46;24.60;96.70
19829;DHT22;10075;50.924;4.396;2022-07-23T09:38:15;24.70;96.60
19829;DHT22;10075;50.924;4.396;2022-07-23T09:40:43;24.80;95.80
19829;DHT22;10075;50.924;4.396;2022-07-23T09:43:11;24.80;95.50
19829;DHT22;10075;50.924;4.396;2022-07-23T09:45:38;24.80;95.70
19829;DHT22;10075;50.924;4.396;2022-07-23T09:48:14;24.80;96.00
19829;DHT22;10075;50.924;4.396;2022-07-23T09:50:42;24.80;96.40
19829;DHT22;10075;50.924;4.396;2022-07-23T09:53:10;24.90;95.90
19829;DHT22;10075;50.924;4.396;2022-07-23T09:55:51;25.00;95.30
19829;DHT22;10075;50.924;4.396;2022-07-23T09:58:21;25.20;94.50
19829;DHT22;10075;50.924;4.396;2022-07-23T10:00:52;25.30;94.10
19829;DHT22;10075;50.924;4.396;2022-07-23T10:03:19;25.40;93.80
19829;DHT22;10075;50.924;4.396;2022-07-23T10:05:48;25.50;93.30
19829;DHT22;10075;50.924;4.396;2022-07-23T10:08:17;25.60;92.20
19829;DHT22;10075;50.924;4.396;2022-07-23T10:10:45;25.60;92.00
19829;DHT22;10075;50.924;4.396;2022-07-23T10:13:15;25.50;92.00
19829;DHT22;10075;50.924;4.396;2022-07-23T10:15:56;25.60;92.40
19829;DHT22;10075;50.924;4.396;2022-07-23T10:18:24;25.60;92.50
19829;DHT22;10075;50.924;4.396;2022-07-23T10:20:51;25.80;92.00
19829;DHT22;10075;50.924;4.396;2022-07-23T10:23:24;25.90;91.60
19829;DHT22;10075;50.924;4.396;2022-07-23T10:25:59;26.10;90.80
19829;DHT22;10075;50.924;4.396;2022-07-23T10:28:45;26.10;90.30
19829;DHT22;10075;50.924;4.396;2022-07-23T10:31:20;26.10;88.90
19829;DHT22;10075;50.924;4.396;2022-07-23T10:33:56;26.00;90.40
19829;DHT22;10075;50.924;4.396;2022-07-23T10:36:35;26.10;90.20
19829;DHT22;10075;50.924;4.396;2022-07-23T10:39:06;26.30;90.40
19829;DHT22;10075;50.924;4.396;2022-07-23T10:41:36;26.40;90.60
19829;DHT22;10075;50.924;4.396;2022-07-23T10:44:10;26.50;88.80
19829;DHT22;10075;50.924;4.396;2022-07-23T10:46:54;26.50;89.60
19829;DHT22;10075;50.924;4.396;2022-07-23T10:49:31;26.40;88.70
19829;DHT22;10075;50.924;4.396;2022-07-23T10:52:18;26.30;89.00
19829;DHT22;10075;50.924;4.396;2022-07-23T10:54:46;26.20;89.70
19829;DHT22;10075;50.924;4.396;2022-07-23T10:57:15;26.10;90.30
19829;DHT22;10075;50.924;4.396;2022-07-23T11:02:54;26.40;90.40
19829;DHT22;10075;50.924;4.396;2022-07-23T11:05:23;26.50;90.70
19829;DHT22;10075;50.924;4.396;2022-07-23T11:08:14;26.60;90.10
19829;DHT22;10075;50.924;4.396;2022-07-23T11:10:44;26.70;87.90
19829;DHT22;10075;50.924;4.396;2022-07-23T11:13:32;26.70;87.90
19829;DHT22;10075;50.924;4.396;2022-07-23T11:16:12;26.70;86.00
19829;DHT22;10075;50.924;4.396;2022-07-23T11:19:04;26.70;87.10
19829;DHT22;10075;50.924;4.396;2022-07-23T11:21:49;26.80;86.80
19829;DHT22;10075;50.924;4.396;2022-07-23T11:24:20;26.80;86.40
19829;DHT22;10075;50.924;4.396;2022-07-23T11:26:53;26.70;85.50
19829;DHT22;10075;50.924;4.396;2022-07-23T11:29:43;26.60;85.90
19829;DHT22;10075;50.924;4.396;2022-07-23T11:32:36;26.70;86.80
19829;DHT22;10075;50.924;4.396;2022-07-23T11:35:23;26.80;85.90
19829;DHT22;10075;50.924;4.396;2022-07-23T11:37:51;26.90;85.60
19829;DHT22;10075;50.924;4.396;2022-07-23T11:40:24;27.00;84.10
19829;DHT22;10075;50.924;4.396;2022-07-23T11:42:55;27.10;84.10
19829;DHT22;10075;50.924;4.396;2022-07-23T11:45:24;27.00;85.10
19829;DHT22;10075;50.924;4.396;2022-07-23T11:47:51;27.00;84.80
19829;DHT22;10075;50.924;4.396;2022-07-23T11:50:18;27.10;86.40
19829;DHT22;10075;50.924;4.396;2022-07-23T11:52:47;27.20;86.20
19829;DHT22;10075;50.924;4.396;2022-07-23T11:55:14;27.30;86.70
19829;DHT22;10075;50.924;4.396;2022-07-23T11:57:45;27.40;84.00
19829;DHT22;10075;50.924;4.396;2022-07-23T12:00:14;27.50;84.00
19829;DHT22;10075;50.924;4.396;2022-07-23T12:02:43;27.60;85.60
19829;DHT22;10075;50.924;4.396;2022-07-23T12:05:12;27.60;85.10
19829;DHT22;10075;50.924;4.396;2022-07-23T12:07:41;27.80;85.70
19829;DHT22;10075;50.924;4.396;2022-07-23T12:10:14;27.90;82.20
19829;DHT22;10075;50.924;4.396;2022-07-23T12:12:43;27.80;83.50
19829;DHT22;10075;50.924;4.396;2022-07-23T12:15:12;27.90;82.40
19829;DHT22;10075;50.924;4.396;2022-07-23T12:17:40;28.10;82.20
19829;DHT22;10075;50.924;4.396;2022-07-23T12:20:11;28.10;83.20
19829;DHT22;10075;50.924;4.396;2022-07-23T12:22:40;28.30;83.10
19829;DHT22;10075;50.924;4.396;2022-07-23T12:25:15;28.30;80.70
19829;DHT22;10075;50.924;4.396;2022-07-23T12:27:42;28.40;80.00
19829;DHT22;10075;50.924;4.396;2022-07-23T12:30:23;28.30;80.20
19829;DHT22;10075;50.924;4.396;2022-07-23T12:32:53;28.40;81.70
19829;DHT22;10075;50.924;4.396;2022-07-23T12:35:22;28.60;81.40
19829;DHT22;10075;50.924;4.396;2022-07-23T12:37:51;28.70;80.60
19829;DHT22;10075;50.924;4.396;2022-07-23T12:40:33;28.90;81.40
19829;DHT22;10075;50.924;4.396;2022-07-23T12:43:04;29.20;80.10
19829;DHT22;10075;50.924;4.396;2022-07-23T12:45:43;29.20;77.50
19829;DHT22;10075;50.924;4.396;2022-07-23T12:48:20;29.10;78.70
19829;DHT22;10075;50.924;4.396;2022-07-23T12:50:56;29.10;78.10
19829;DHT22;10075;50.924;4.396;2022-07-23T12:53:25;29.10;78.80
19829;DHT22;10075;50.924;4.396;2022-07-23T12:56:01;29.20;77.90
19829;DHT22;10075;50.924;4.396;2022-07-23T12:58:40;29.30;78.00
19829;DHT22;10075;50.924;4.396;2022-07-23T13:01:08;29.20;77.20
19829;DHT22;10075;50.924;4.396;2022-07-23T13:03:37;29.00;77.70
19829;DHT22;10075;50.924;4.396;2022-07-23T13:06:06;29.00;78.00
19829;DHT22;10075;50.924;4.396;2022-07-23T13:08:35;29.10;77.80
19829;DHT22;10075;50.924;4.396;2022-07-23T13:11:04;29.20;77.90
19829;DHT22;10075;50.924;4.396;2022-07-23T13:13:34;29.40;77.30
19829;DHT22;10075;50.924;4.396;2022-07-23T13:16:02;29.60;77.10
19829;DHT22;10075;50.924;4.396;2022-07-23T13:18:29;29.80;77.80
19829;DHT22;10075;50.924;4.396;2022-07-23T13:20:57;30.00;77.10
19829;DHT22;10075;50.924;4.396;2022-07-23T13:23:24;30.10;77.20
19829;DHT22;10075;50.924;4.396;2022-07-23T13:25:51;30.40;77.90
19829;DHT22;10075;50.924;4.396;2022-07-23T13:28:21;30.70;76.90
19829;DHT22;10075;50.924;4.396;2022-07-23T13:30:49;31.00;76.30
19829;DHT22;10075;50.924;4.396;2022-07-23T13:33:17;31.10;73.60
19829;DHT22;10075;50.924;4.396;2022-07-23T13:35:45;31.20;72.80
19829;DHT22;10075;50.924;4.396;2022-07-23T13:38:12;31.10;73.40
19829;DHT22;10075;50.924;4.396;2022-07-23T13:40:40;31.10;73.00
19829;DHT22;10075;50.924;4.396;2022-07-23T13:43:09;31.10;73.20
19829;DHT22;10075;50.924;4.396;2022-07-23T13:45:38;31.30;73.40
19829;DHT22;10075;50.924;4.396;2022-07-23T13:48:08;31.30;72.00
19829;DHT22;10075;50.924;4.396;2022-07-23T13:50:36;31.30;72.50
19829;DHT22;10075;50.924;4.396;2022-07-23T13:53:04;31.40;72.60
19829;DHT22;10075;50.924;4.396;2022-07-23T13:55:32;31.60;72.40
19829;DHT22;10075;50.924;4.396;2022-07-23T13:58:00;31.60;72.30
19829;DHT22;10075;50.924;4.396;2022-07-23T14:00:28;31.40;72.40
19829;DHT22;10075;50.924;4.396;2022-07-23T14:02:58;31.30;73.30
19829;DHT22;10075;50.924;4.396;2022-07-23T14:05:26;31.30;73.10
19829;DHT22;10075;50.924;4.396;2022-07-23T14:07:54;31.40;74.00
19829;DHT22;10075;50.924;4.396;2022-07-23T14:10:22;31.50;73.50
19829;DHT22;10075;50.924;4.396;2022-07-23T14:12:50;31.50;72.50
19829;DHT22;10075;50.924;4.396;2022-07-23T14:15:18;31.30;72.50
19829;DHT22;10075;50.924;4.396;2022-07-23T14:17:46;31.30;72.00
19829;DHT22;10075;50.924;4.396;2022-07-23T14:20:15;31.20;72.10
19829;DHT22;10075;50.924;4.396;2022-07-23T14:22:42;31.10;73.00
19829;DHT22;10075;50.924;4.396;2022-07-23T14:25:10;31.30;72.80
19829;DHT22;10075;50.924;4.396;2022-07-23T14:27:37;31.60;72.10
19829;DHT22;10075;50.924;4.396;2022-07-23T14:30:06;31.90;71.30
19829;DHT22;10075;50.924;4.396;2022-07-23T14:32:34;32.30;70.50
19829;DHT22;10075;50.924;4.396;2022-07-23T14:35:02;32.60;70.80
19829;DHT22;10075;50.924;4.396;2022-07-23T14:37:30;33.30;69.60
19829;DHT22;10075;50.924;4.396;2022-07-23T14:39:57;33.90;68.70
19829;DHT22;10075;50.924;4.396;2022-07-23T14:42:25;34.80;65.60
19829;DHT22;10075;50.924;4.396;2022-07-23T14:44:52;35.70;63.20
19829;DHT22;10075;50.924;4.396;2022-07-23T14:47:19;36.80;61.80
19829;DHT22;10075;50.924;4.396;2022-07-23T14:49:46;37.80;58.00
19829;DHT22;10075;50.924;4.396;2022-07-23T14:52:12;38.10;57.30
19829;DHT22;10075;50.924;4.396;2022-07-23T14:54:41;38.30;57.50
19829;DHT22;10075;50.924;4.396;2022-07-23T14:57:08;38.80;56.80
19829;DHT22;10075;50.924;4.396;2022-07-23T14:59:35;38.80;55.70
19829;DHT22;10075;50.924;4.396;2022-07-23T15:02:02;39.10;55.20
19829;DHT22;10075;50.924;4.396;2022-07-23T15:04:29;39.30;53.60
19829;DHT22;10075;50.924;4.396;2022-07-23T15:06:56;39.40;54.60
19829;DHT22;10075;50.924;4.396;2022-07-23T15:09:23;40.50;54.00
19829;DHT22;10075;50.924;4.396;2022-07-23T15:11:51;41.70;51.70
19829;DHT22;10075;50.924;4.396;2022-07-23T15:14:18;42.40;49.30
19829;DHT22;10075;50.924;4.396;2022-07-23T15:16:45;43.30;47.30
19829;DHT22;10075;50.924;4.396;2022-07-23T15:19:12;43.70;46.90
19829;DHT22;10075;50.924;4.396;2022-07-23T15:21:39;44.30;46.50
19829;DHT22;10075;50.924;4.396;2022-07-23T15:24:06;44.80;45.00
19829;DHT22;10075;50.924;4.396;2022-07-23T15:26:33;45.20;44.20
19829;DHT22;10075;50.924;4.396;2022-07-23T15:29:02;45.00;43.50
19829;DHT22;10075;50.924;4.396;2022-07-23T15:31:32;44.30;43.50
19829;DHT22;10075;50.924;4.396;2022-07-23T15:33:59;43.90;44.10
19829;DHT22;10075;50.924;4.396;2022-07-23T15:36:26;44.30;44.80
19829;DHT22;10075;50.924;4.396;2022-07-23T15:38:53;45.40;44.00
19829;DHT22;10075;50.924;4.396;2022-07-23T15:41:20;46.00;42.20
19829;DHT22;10075;50.924;4.396;2022-07-23T15:43:47;46.60;42.10